sensor_id;sensor_type;location;lat;lon;timestamp;temperature;humidity
20744;DHT22;56303;52.160;-0.428;2022-10-14T00:00:42;11.50;99.90
20744;DHT22;56303;52.160;-0.428;2022-10-14T00:03:09;11.40;99.90
20744;DHT22;56303;52.160;-0.428;2022-10-14T00:05:39;11.50;99.90
20744;DHT22;56303;52.160;-0.428;2022-10-14T00:08:06;11.40;99.90
20744;DHT22;56303;52.160;-0.428;2022-10-14T00:10:37;11.10;99.90
20744;DHT22;56303;52.160;-0.428;2022-10-14T00:13:04;11.10;99.90
20744;DHT22;56303;52.160;-0.428;2022-10-14T00:15:31;11.20;99.90
20744;DHT22;56303;52.160;-0.428;2022-10-14T00:18:02;11.60;99.90
20744;DHT22;56303;52.160;-0.428;2022-10-14T00:20:29;11.60;99.90
20744;DHT22;56303;52.160;-0.428;2022-10-14T00:22:56;11.70;99.90
20744;DHT22;56303;52.160;-0.428;2022-10-14T00:25:23;11.70;99.90
20744;DHT22;56303;52.160;-0.428;2022-10-14T00:27:52;11.70;99.90
20744;DHT22;56303;52.160;-0.428;2022-10-14T00:30:18;11.80;99.90
20744;DHT22;56303;52.160;-0.428;2022-10-14T00:32:46;11.40;99.90
20744;DHT22;56303;52.160;-0.428;2022-10-14T00:35:13;11.80;99.90
20744;DHT22;56303;52.160;-0.428;2022-10-14T00:37:39;11.80;99.90
20744;DHT22;56303;52.160;-0.428;2022-10-14T00:40:07;11.70;99.90
20744;DHT22;56303;52.160;-0.428;2022-10-14T00:42:34;11.70;99.90
20744;DHT22;56303;52.160;-0.428;2022-10-14T00:45:05;11.60;99.90
20744;DHT22;56303;52.160;-0.428;2022-10-14T00:47:32;11.70;99.90
20744;DHT22;56303;52.160;-0.428;2022-10-14T00:49:59;11.70;99.90
20744;DHT22;56303;52.160;-0.428;2022-10-14T00:52:26;11.80;99.90
20744;DHT22;56303;52.160;-0.428;2022-10-14T00:55:02;11.90;99.90
20744;DHT22;56303;52.160;-0.428;2022-10-14T00:57:31;11.90;99.90
20744;DHT22;56303;52.160;-0.428;2022-10-14T01:00:04;11.90;99.90
20744;DHT22;56303;52.160;-0.428;2022-10-14T01:02:31;11.80;99.90
20744;DHT22;56303;52.160;-0.428;2022-10-14T01:04:59;11.80;99.90
20744;DHT22;56303;52.160;-0.428;2022-10-14T01:15:48;11.70;99.90
20744;DHT22;56303;52.160;-0.428;2022-10-14T01:24:13;11.30;99.90
20744;DHT22;56303;52.160;-0.428;2022-10-14T01:26:58;11.40;99.90
20744;DHT22;56303;52.160;-0.428;2022-10-14T01:35:09;11.60;99.90
20744;DHT22;56303;52.160;-0.428;2022-10-14T01:37:45;11.80;99.90
20744;DHT22;56303;52.160;-0.428;2022-10-14T01:40:27;11.70;99.90
20744;DHT22;56303;52.160;-0.428;2022-10-14T01:42:56;11.70;99.90
20744;DHT22;56303;52.160;-0.428;2022-10-14T01:45:25;11.80;99.90
20744;DHT22;56303;52.160;-0.428;2022-10-14T01:47:55;11.70;99.90
20744;DHT22;56303;52.160;-0.428;2022-10-14T01:50:24;11.50;99.90
20744;DHT22;56303;52.160;-0.428;2022-10-14T01:53:12;11.50;99.90
20744;DHT22;56303;52.160;-0.428;2022-10-14T01:55:45;11.60;99.90
20744;DHT22;56303;52.160;-0.428;2022-10-14T01:58:15;11.70;99.90
20744;DHT22;56303;52.160;-0.428;2022-10-14T02:00:42;11.80;99.90
20744;DHT22;56303;52.160;-0.428;2022-10-14T02:03:11;11.90;99.90
20744;DHT22;56303;52.160;-0.428;2022-10-14T02:05:59;11.80;99.90
20744;DHT22;56303;52.160;-0.428;2022-10-14T02:11:10;11.70;99.90
20744;DHT22;56303;52.160;-0.428;2022-10-14T02:14:02;12.50;99.90
20744;DHT22;56303;52.160;-0.428;2022-10-14T02:19:43;11.70;99.90
20744;DHT22;56303;52.160;-0.428;2022-10-14T02:24:59;11.60;99.90
20744;DHT22;56303;52.160;-0.428;2022-10-14T02:27:30;11.60;99.90
20744;DHT22;56303;52.160;-0.428;2022-10-14T02:29:58;11.70;99.90
20744;DHT22;56303;52.160;-0.428;2022-10-14T02:32:26;11.60;99.90
20744;DHT22;56303;52.160;-0.428;2022-10-14T02:34:57;11.70;99.90
20744;DHT22;56303;52.160;-0.428;2022-10-14T02:37:24;11.70;99.90
20744;DHT22;56303;52.160;-0.428;2022-10-14T02:42:33;11.70;99.90
20744;DHT22;56303;52.160;-0.428;2022-10-14T02:45:00;11.70;99.90
20744;DHT22;56303;52.160;-0.428;2022-10-14T02:47:28;11.50;99.90
20744;DHT22;56303;52.160;-0.428;2022-10-14T02:49:54;11.50;99.90
20744;DHT22;56303;52.160;-0.428;2022-10-14T02:52:21;11.60;99.90
20744;DHT22;56303;52.160;-0.428;2022-10-14T02:54:48;11.70;99.90
20744;DHT22;56303;52.160;-0.428;2022-10-14T02:57:15;11.90;99.90
20744;DHT22;56303;52.160;-0.428;2022-10-14T02:59:42;11.70;99.90
20744;DHT22;56303;52.160;-0.428;2022-10-14T03:02:09;11.60;99.90
20744;DHT22;56303;52.160;-0.428;2022-10-14T03:04:36;11.50;99.90
20744;DHT22;56303;52.160;-0.428;2022-10-14T03:07:03;11.60;99.90
20744;DHT22;56303;52.160;-0.428;2022-10-14T03:09:30;11.80;99.90
20744;DHT22;56303;52.160;-0.428;2022-10-14T03:11:57;11.70;99.90
20744;DHT22;56303;52.160;-0.428;2022-10-14T03:14:24;11.70;99.90
20744;DHT22;56303;52.160;-0.428;2022-10-14T03:16:50;11.80;99.90
20744;DHT22;56303;52.160;-0.428;2022-10-14T03:19:17;11.90;99.90
20744;DHT22;56303;52.160;-0.428;2022-10-14T03:21:44;11.70;99.90
20744;DHT22;56303;52.160;-0.428;2022-10-14T03:24:11;11.60;99.90
20744;DHT22;56303;52.160;-0.428;2022-10-14T03:26:37;11.50;99.90
20744;DHT22;56303;52.160;-0.428;2022-10-14T03:29:04;10.90;99.90
20744;DHT22;56303;52.160;-0.428;2022-10-14T03:31:31;11.30;99.90
20744;DHT22;56303;52.160;-0.428;2022-10-14T03:33:58;11.30;99.90
20744;DHT22;56303;52.160;-0.428;2022-10-14T03:36:25;11.40;99.90
20744;DHT22;56303;52.160;-0.428;2022-10-14T03:38:51;11.50;99.90
20744;DHT22;56303;52.160;-0.428;2022-10-14T03:41:18;11.60;99.90
20744;DHT22;56303;52.160;-0.428;2022-10-14T03:43:45;11.60;99.90
20744;DHT22;56303;52.160;-0.428;2022-10-14T03:46:12;11.70;99.90
20744;DHT22;56303;52.160;-0.428;2022-10-14T03:48:38;11.90;99.90
20744;DHT22;56303;52.160;-0.428;2022-10-14T03:51:06;11.90;99.90
20744;DHT22;56303;52.160;-0.428;2022-10-14T03:53:33;11.60;99.90
20744;DHT22;56303;52.160;-0.428;2022-10-14T03:56:00;11.50;99.90
20744;DHT22;56303;52.160;-0.428;2022-10-14T03:58:27;11.40;99.90
20744;DHT22;56303;52.160;-0.428;2022-10-14T04:00:53;11.40;99.90
20744;DHT22;56303;52.160;-0.428;2022-10-14T04:03:20;11.60;99.90
20744;DHT22;56303;52.160;-0.428;2022-10-14T04:05:47;11.60;99.90
20744;DHT22;56303;52.160;-0.428;2022-10-14T04:08:14;11.70;99.90
20744;DHT22;56303;52.160;-0.428;2022-10-14T04:10:40;11.60;99.90
20744;DHT22;56303;52.160;-0.428;2022-10-14T04:13:07;11.50;99.90
20744;DHT22;56303;52.160;-0.428;2022-10-14T04:15:36;11.60;99.90
20744;DHT22;56303;52.160;-0.428;2022-10-14T04:18:03;11.60;99.90
20744;DHT22;56303;52.160;-0.428;2022-10-14T04:20:30;11.70;99.90
20744;DHT22;56303;52.160;-0.428;2022-10-14T04:22:58;11.70;99.90
20744;DHT22;56303;52.160;-0.428;2022-10-14T04:25:26;11.90;99.90
20744;DHT22;56303;52.160;-0.428;2022-10-14T04:27:53;11.80;99.90
20744;DHT22;56303;52.160;-0.428;2022-10-14T04:30:20;12.10;99.90
20744;DHT22;56303;52.160;-0.428;2022-10-14T04:32:47;12.10;99.90
20744;DHT22;56303;52.160;-0.428;2022-10-14T04:35:14;12.20;99.90
20744;DHT22;56303;52.160;-0.428;2022-10-14T04:37:41;12.30;99.90
20744;DHT22;56303;52.160;-0.428;2022-10-14T04:40:08;12.30;99.90
20744;DHT22;56303;52.160;-0.428;2022-10-14T04:42:35;12.40;99.90
20744;DHT22;56303;52.160;-0.428;2022-10-14T04:45:02;12.40;99.90
20744;DHT22;56303;52.160;-0.428;2022-10-14T04:47:30;12.40;99.90
20744;DHT22;56303;52.160;-0.428;2022-10-14T04:49:57;12.30;99.90
20744;DHT22;56303;52.160;-0.428;2022-10-14T04:52:24;12.20;99.90
20744;DHT22;56303;52.160;-0.428;2022-10-14T04:54:51;12.20;99.90
20744;DHT22;56303;52.160;-0.428;2022-10-14T04:57:17;12.00;99.90
20744;DHT22;56303;52.160;-0.428;2022-10-14T04:59:44;12.00;99.90
20744;DHT22;56303;52.160;-0.428;2022-10-14T05:02:11;12.10;99.90
20744;DHT22;56303;52.160;-0.428;2022-10-14T05:04:37;12.20;99.90
20744;DHT22;56303;52.160;-0.428;2022-10-14T05:07:04;12.40;99.90
20744;DHT22;56303;52.160;-0.428;2022-10-14T05:09:31;12.60;99.90
20744;DHT22;56303;52.160;-0.428;2022-10-14T05:12:00;12.50;99.90
20744;DHT22;56303;52.160;-0.428;2022-10-14T05:14:27;12.50;99.90
20744;DHT22;56303;52.160;-0.428;2022-10-14T05:16:55;12.30;99.90
20744;DHT22;56303;52.160;-0.428;2022-10-14T05:19:21;12.20;99.90
20744;DHT22;56303;52.160;-0.428;2022-10-14T05:21:48;12.30;99.90
20744;DHT22;56303;52.160;-0.428;2022-10-14T05:24:15;12.30;99.90
20744;DHT22;56303;52.160;-0.428;2022-10-14T05:26:42;12.30;99.90
20744;DHT22;56303;52.160;-0.428;2022-10-14T05:29:12;12.30;99.90
20744;DHT22;56303;52.160;-0.428;2022-10-14T05:31:39;12.40;99.90
20744;DHT22;56303;52.160;-0.428;2022-10-14T05:34:05;12.30;99.90
20744;DHT22;56303;52.160;-0.428;2022-10-14T05:36:32;12.30;99.90
20744;DHT22;56303;52.160;-0.428;2022-10-14T05:38:59;12.30;99.90
20744;DHT22;56303;52.160;-0.428;2022-10-14T05:41:26;12.20;99.90
20744;DHT22;56303;52.160;-0.428;2022-10-14T05:43:54;12.10;99.90
20744;DHT22;56303;52.160;-0.428;2022-10-14T05:46:21;11.70;99.90
20744;DHT22;56303;52.160;-0.428;2022-10-14T05:48:48;11.70;99.90
20744;DHT22;56303;52.160;-0.428;2022-10-14T05:51:14;12.20;99.90
20744;DHT22;56303;52.160;-0.428;2022-10-14T05:53:42;12.00;99.90
20744;DHT22;56303;52.160;-0.428;2022-10-14T05:56:09;10.30;99.90
20744;DHT22;56303;52.160;-0.428;2022-10-14T05:58:36;12.00;99.90
20744;DHT22;56303;52.160;-0.428;2022-10-14T06:01:05;12.10;99.90
20744;DHT22;56303;52.160;-0.428;2022-10-14T06:03:33;12.20;99.90
20744;DHT22;56303;52.160;-0.428;2022-10-14T06:06:00;12.20;99.90
20744;DHT22;56303;52.160;-0.428;2022-10-14T06:08:28;11.90;99.90
20744;DHT22;56303;52.160;-0.428;2022-10-14T06:10:55;12.00;99.90
20744;DHT22;56303;52.160;-0.428;2022-10-14T06:13:22;12.00;99.90
20744;DHT22;56303;52.160;-0.428;2022-10-14T06:15:48;12.00;99.90
20744;DHT22;56303;52.160;-0.428;2022-10-14T06:18:15;12.10;99.90
20744;DHT22;56303;52.160;-0.428;2022-10-14T06:20:42;12.10;99.90
20744;DHT22;56303;52.160;-0.428;2022-10-14T06:23:09;12.20;99.90
20744;DHT22;56303;52.160;-0.428;2022-10-14T06:25:36;12.30;99.90
20744;DHT22;56303;52.160;-0.428;2022-10-14T06:28:03;12.30;99.90
20744;DHT22;56303;52.160;-0.428;2022-10-14T06:30:31;12.40;99.90
20744;DHT22;56303;52.160;-0.428;2022-10-14T06:32:58;12.50;99.90
20744;DHT22;56303;52.160;-0.428;2022-10-14T06:35:25;12.50;99.90
20744;DHT22;56303;52.160;-0.428;2022-10-14T06:37:52;12.50;99.90
20744;DHT22;56303;52.160;-0.428;2022-10-14T06:40:19;12.60;99.90
20744;DHT22;56303;52.160;-0.428;2022-10-14T06:42:45;12.60;99.90
20744;DHT22;56303;52.160;-0.428;2022-10-14T06:45:12;12.60;99.90
20744;DHT22;56303;52.160;-0.428;2022-10-14T06:47:39;12.60;99.90
20744;DHT22;56303;52.160;-0.428;2022-10-14T06:50:06;12.50;99.90
20744;DHT22;56303;52.160;-0.428;2022-10-14T06:52:33;12.30;99.90
20744;DHT22;56303;52.160;-0.428;2022-10-14T06:55:00;12.50;99.90
20744;DHT22;56303;52.160;-0.428;2022-10-14T06:57:26;12.60;99.90
20744;DHT22;56303;52.160;-0.428;2022-10-14T06:59:53;12.70;99.90
20744;DHT22;56303;52.160;-0.428;2022-10-14T07:02:20;12.30;99.90
20744;DHT22;56303;52.160;-0.428;2022-10-14T07:04:47;12.70;99.90
20744;DHT22;56303;52.160;-0.428;2022-10-14T07:07:14;12.90;99.90
20744;DHT22;56303;52.160;-0.428;2022-10-14T07:09:41;12.80;99.90
20744;DHT22;56303;52.160;-0.428;2022-10-14T07:12:07;12.70;99.90
20744;DHT22;56303;52.160;-0.428;2022-10-14T07:14:34;12.80;99.90
20744;DHT22;56303;52.160;-0.428;2022-10-14T07:17:01;13.10;99.90
20744;DHT22;56303;52.160;-0.428;2022-10-14T07:19:28;13.40;99.90
20744;DHT22;56303;52.160;-0.428;2022-10-14T07:21:55;13.20;99.90
20744;DHT22;56303;52.160;-0.428;2022-10-14T07:24:21;13.30;99.90
20744;DHT22;56303;52.160;-0.428;2022-10-14T07:26:48;13.40;99.90
20744;DHT22;56303;52.160;-0.428;2022-10-14T07:29:15;13.50;99.90
20744;DHT22;56303;52.160;-0.428;2022-10-14T07:31:42;13.60;99.90
20744;DHT22;56303;52.160;-0.428;2022-10-14T07:34:09;13.60;99.90
20744;DHT22;56303;52.160;-0.428;2022-10-14T07:36:36;13.60;99.90
20744;DHT22;56303;52.160;-0.428;2022-10-14T07:39:03;13.70;99.90
20744;DHT22;56303;52.160;-0.428;2022-10-14T07:41:32;13.80;99.90
20744;DHT22;56303;52.160;-0.428;2022-10-14T07:44:01;13.80;99.90
20744;DHT22;56303;52.160;-0.428;2022-10-14T07:46:29;14.00;99.90
20744;DHT22;56303;52.160;-0.428;2022-10-14T07:49:01;14.20;99.90
20744;DHT22;56303;52.160;-0.428;2022-10-14T07:51:29;14.40;99.90
20744;DHT22;56303;52.160;-0.428;2022-10-14T07:53:57;14.50;99.90
20744;DHT22;56303;52.160;-0.428;2022-10-14T07:56:24;14.60;99.90
20744;DHT22;56303;52.160;-0.428;2022-10-14T07:58:51;14.90;99.90
20744;DHT22;56303;52.160;-0.428;2022-10-14T08:01:19;15.00;99.90
20744;DHT22;56303;52.160;-0.428;2022-10-14T08:03:47;15.10;99.90
20744;DHT22;56303;52.160;-0.428;2022-10-14T08:06:14;15.30;99.90
20744;DHT22;56303;52.160;-0.428;2022-10-14T08:08:41;15.30;99.90
20744;DHT22;56303;52.160;-0.428;2022-10-14T08:11:20;15.30;99.90
20744;DHT22;56303;52.160;-0.428;2022-10-14T08:13:47;15.50;99.90
20744;DHT22;56303;52.160;-0.428;2022-10-14T08:16:17;15.40;99.90
20744;DHT22;56303;52.160;-0.428;2022-10-14T08:18:45;15.50;99.90
20744;DHT22;56303;52.160;-0.428;2022-10-14T08:21:13;15.40;99.90
20744;DHT22;56303;52.160;-0.428;2022-10-14T08:23:40;15.30;99.90
20744;DHT22;56303;52.160;-0.428;2022-10-14T08:26:29;15.00;99.90
20744;DHT22;56303;52.160;-0.428;2022-10-14T08:28:58;15.50;99.90
20744;DHT22;56303;52.160;-0.428;2022-10-14T08:31:27;16.30;99.90
20744;DHT22;56303;52.160;-0.428;2022-10-14T08:33:54;15.10;99.90
20744;DHT22;56303;52.160;-0.428;2022-10-14T08:36:21;15.00;99.90
20744;DHT22;56303;52.160;-0.428;2022-10-14T08:38:50;15.00;99.90
20744;DHT22;56303;52.160;-0.428;2022-10-14T08:46:51;15.20;99.90
20744;DHT22;56303;52.160;-0.428;2022-10-14T08:52:11;15.00;99.90
20744;DHT22;56303;52.160;-0.428;2022-10-14T08:54:42;15.20;99.90
20744;DHT22;56303;52.160;-0.428;2022-10-14T08:57:17;15.30;99.90
20744;DHT22;56303;52.160;-0.428;2022-10-14T08:59:44;15.10;99.90
20744;DHT22;56303;52.160;-0.428;2022-10-14T09:05:22;15.00;99.90
20744;DHT22;56303;52.160;-0.428;2022-10-14T09:07:52;15.20;99.90
20744;DHT22;56303;52.160;-0.428;2022-10-14T09:10:31;15.40;99.90
20744;DHT22;56303;52.160;-0.428;2022-10-14T09:13:17;15.50;99.90
20744;DHT22;56303;52.160;-0.428;2022-10-14T09:15:49;15.70;99.90
20744;DHT22;56303;52.160;-0.428;2022-10-14T09:20:51;15.40;99.90
20744;DHT22;56303;52.160;-0.428;2022-10-14T09:23:21;15.50;99.90
20744;DHT22;56303;52.160;-0.428;2022-10-14T09:25:54;15.60;99.90
20744;DHT22;56303;52.160;-0.428;2022-10-14T09:28:28;15.60;99.90
20744;DHT22;56303;52.160;-0.428;2022-10-14T09:30:56;15.80;99.90
20744;DHT22;56303;52.160;-0.428;2022-10-14T09:33:26;15.90;99.90
20744;DHT22;56303;52.160;-0.428;2022-10-14T09:35:54;15.90;99.90
20744;DHT22;56303;52.160;-0.428;2022-10-14T09:38:25;15.50;99.90
20744;DHT22;56303;52.160;-0.428;2022-10-14T09:40:57;15.70;99.90
20744;DHT22;56303;52.160;-0.428;2022-10-14T09:43:25;15.90;99.90
20744;DHT22;56303;52.160;-0.428;2022-10-14T09:46:05;15.80;99.90
20744;DHT22;56303;52.160;-0.428;2022-10-14T09:48:49;15.90;99.90
20744;DHT22;56303;52.160;-0.428;2022-10-14T09:51:25;15.70;99.90
20744;DHT22;56303;52.160;-0.428;2022-10-14T09:53:55;15.70;99.90
20744;DHT22;56303;52.160;-0.428;2022-10-14T09:56:32;15.70;99.90
20744;DHT22;56303;52.160;-0.428;2022-10-14T09:59:20;15.80;99.90
20744;DHT22;56303;52.160;-0.428;2022-10-14T10:04:40;15.60;99.90
20744;DHT22;56303;52.160;-0.428;2022-10-14T10:07:29;15.80;99.90
20744;DHT22;56303;52.160;-0.428;2022-10-14T10:10:03;16.10;99.90
20744;DHT22;56303;52.160;-0.428;2022-10-14T10:12:41;16.30;99.90
20744;DHT22;56303;52.160;-0.428;2022-10-14T10:15:19;16.10;99.90
20744;DHT22;56303;52.160;-0.428;2022-10-14T10:17:48;16.20;99.90
20744;DHT22;56303;52.160;-0.428;2022-10-14T10:23:25;16.00;99.90
20744;DHT22;56303;52.160;-0.428;2022-10-14T10:25:52;16.00;99.90
20744;DHT22;56303;52.160;-0.428;2022-10-14T10:28:27;16.00;99.90
20744;DHT22;56303;52.160;-0.428;2022-10-14T10:34:34;16.20;99.90
20744;DHT22;56303;52.160;-0.428;2022-10-14T10:39:46;15.90;99.90
20744;DHT22;56303;52.160;-0.428;2022-10-14T10:42:18;15.80;99.90
20744;DHT22;56303;52.160;-0.428;2022-10-14T10:50:25;16.30;99.90
20744;DHT22;56303;52.160;-0.428;2022-10-14T10:53:01;16.50;99.90
20744;DHT22;56303;52.160;-0.428;2022-10-14T10:55:50;16.20;99.90
20744;DHT22;56303;52.160;-0.428;2022-10-14T10:58:47;16.30;99.90
20744;DHT22;56303;52.160;-0.428;2022-10-14T11:07:22;16.40;99.90
20744;DHT22;56303;52.160;-0.428;2022-10-14T11:10:37;16.20;99.90
20744;DHT22;56303;52.160;-0.428;2022-10-14T11:18:50;16.40;99.90
20744;DHT22;56303;52.160;-0.428;2022-10-14T11:23:58;16.00;99.90
20744;DHT22;56303;52.160;-0.428;2022-10-14T11:29:28;16.00;99.90
20744;DHT22;56303;52.160;-0.428;2022-10-14T11:32:21;16.10;99.90
20744;DHT22;56303;52.160;-0.428;2022-10-14T11:38:06;16.20;99.90
20744;DHT22;56303;52.160;-0.428;2022-10-14T11:40:47;16.30;99.90
20744;DHT22;56303;52.160;-0.428;2022-10-14T11:43:35;16.10;99.90
20744;DHT22;56303;52.160;-0.428;2022-10-14T11:46:15;16.10;99.90
20744;DHT22;56303;52.160;-0.428;2022-10-14T11:48:55;16.20;99.90
20744;DHT22;56303;52.160;-0.428;2022-10-14T11:51:39;16.10;99.90
20744;DHT22;56303;52.160;-0.428;2022-10-14T11:54:16;16.80;99.90
20744;DHT22;56303;52.160;-0.428;2022-10-14T11:56:51;15.90;99.90
20744;DHT22;56303;52.160;-0.428;2022-10-14T12:07:44;16.30;99.90
20744;DHT22;56303;52.160;-0.428;2022-10-14T12:10:20;16.20;99.90
20744;DHT22;56303;52.160;-0.428;2022-10-14T12:12:49;16.30;99.90
20744;DHT22;56303;52.160;-0.428;2022-10-14T12:15:23;16.00;99.90
20744;DHT22;56303;52.160;-0.428;2022-10-14T12:17:59;16.10;99.90
20744;DHT22;56303;52.160;-0.428;2022-10-14T12:23:07;15.60;99.90
20744;DHT22;56303;52.160;-0.428;2022-10-14T12:25:42;15.60;99.90
20744;DHT22;56303;52.160;-0.428;2022-10-14T12:28:11;15.50;99.90
20744;DHT22;56303;52.160;-0.428;2022-10-14T12:30:41;15.80;99.90
20744;DHT22;56303;52.160;-0.428;2022-10-14T12:33:12;16.00;99.90
20744;DHT22;56303;52.160;-0.428;2022-10-14T12:35:56;15.80;99.90
20744;DHT22;56303;52.160;-0.428;2022-10-14T12:38:27;15.80;99.90
20744;DHT22;56303;52.160;-0.428;2022-10-14T12:41:37;15.70;99.90
20744;DHT22;56303;52.160;-0.428;2022-10-14T12:44:11;15.50;99.90
20744;DHT22;56303;52.160;-0.428;2022-10-14T12:46:43;15.50;99.90
20744;DHT22;56303;52.160;-0.428;2022-10-14T12:49:26;15.80;99.90
20744;DHT22;56303;52.160;-0.428;2022-10-14T12:51:56;15.90;99.90
20744;DHT22;56303;52.160;-0.428;2022-10-14T12:54:25;15.80;99.90
20744;DHT22;56303;52.160;-0.428;2022-10-14T12:57:00;15.80;99.90
20744;DHT22;56303;52.160;-0.428;2022-10-14T12:59:29;15.60;99.90
20744;DHT22;56303;52.160;-0.428;2022-10-14T13:02:00;15.90;99.90
20744;DHT22;56303;52.160;-0.428;2022-10-14T13:04:28;16.30;99.90
20744;DHT22;56303;52.160;-0.428;2022-10-14T13:16:08;16.60;99.90
20744;DHT22;56303;52.160;-0.428;2022-10-14T13:21:10;16.50;99.90
20744;DHT22;56303;52.160;-0.428;2022-10-14T13:23:48;16.70;99.90
20744;DHT22;56303;52.160;-0.428;2022-10-14T13:26:26;16.90;99.90
20744;DHT22;56303;52.160;-0.428;2022-10-14T13:39:54;17.80;99.90
20744;DHT22;56303;52.160;-0.428;2022-10-14T13:42:30;18.90;99.90
20744;DHT22;56303;52.160;-0.428;2022-10-14T13:45:05;17.30;99.90
20744;DHT22;56303;52.160;-0.428;2022-10-14T13:47:34;17.00;99.90
20744;DHT22;56303;52.160;-0.428;2022-10-14T13:50:03;17.40;99.90
20744;DHT22;56303;52.160;-0.428;2022-10-14T13:52:32;17.70;99.90
20744;DHT22;56303;52.160;-0.428;2022-10-14T13:55:19;17.40;99.90
20744;DHT22;56303;52.160;-0.428;2022-10-14T13:58:19;17.10;99.90
20744;DHT22;56303;52.160;-0.428;2022-10-14T14:03:30;17.10;99.90
20744;DHT22;56303;52.160;-0.428;2022-10-14T14:05:58;17.30;99.90
20744;DHT22;56303;52.160;-0.428;2022-10-14T14:08:41;17.30;99.90
20744;DHT22;56303;52.160;-0.428;2022-10-14T14:11:29;17.60;99.90
20744;DHT22;56303;52.160;-0.428;2022-10-14T14:16:38;18.50;99.90
20744;DHT22;56303;52.160;-0.428;2022-10-14T14:19:23;17.90;99.90
20744;DHT22;56303;52.160;-0.428;2022-10-14T14:21:51;17.50;99.90
20744;DHT22;56303;52.160;-0.428;2022-10-14T14:24:24;17.50;99.90
20744;DHT22;56303;52.160;-0.428;2022-10-14T14:26:55;17.40;99.90
20744;DHT22;56303;52.160;-0.428;2022-10-14T14:29:25;17.50;99.90
20744;DHT22;56303;52.160;-0.428;2022-10-14T14:31:53;17.70;99.90
20744;DHT22;56303;52.160;-0.428;2022-10-14T14:34:34;17.60;99.90
20744;DHT22;56303;52.160;-0.428;2022-10-14T14:37:02;17.90;99.90
20744;DHT22;56303;52.160;-0.428;2022-10-14T14:40:06;18.60;99.90
20744;DHT22;56303;52.160;-0.428;2022-10-14T14:42:36;18.90;99.90
20744;DHT22;56303;52.160;-0.428;2022-10-14T14:48:05;19.20;99.90
20744;DHT22;56303;52.160;-0.428;2022-10-14T14:50:40;19.40;99.90
20744;DHT22;56303;52.160;-0.428;2022-10-14T14:53:23;19.10;99.90
20744;DHT22;56303;52.160;-0.428;2022-10-14T15:01:17;18.80;99.90
20744;DHT22;56303;52.160;-0.428;2022-10-14T15:04:02;18.30;99.90
20744;DHT22;56303;52.160;-0.428;2022-10-14T15:12:04;19.70;99.90
20744;DHT22;56303;52.160;-0.428;2022-10-14T15:14:45;20.70;99.90
20744;DHT22;56303;52.160;-0.428;2022-10-14T15:17:38;21.80;99.90
20744;DHT22;56303;52.160;-0.428;2022-10-14T15:20:28;21.90;99.90
20744;DHT22;56303;52.160;-0.428;2022-10-14T15:22:55;22.50;99.90
20744;DHT22;56303;52.160;-0.428;2022-10-14T15:25:23;21.10;99.90
20744;DHT22;56303;52.160;-0.428;2022-10-14T15:27:57;20.70;99.90
20744;DHT22;56303;52.160;-0.428;2022-10-14T15:33:14;18.60;99.90
20744;DHT22;56303;52.160;-0.428;2022-10-14T15:35:42;18.30;99.90
20744;DHT22;56303;52.160;-0.428;2022-10-14T15:38:16;18.00;99.90
20744;DHT22;56303;52.160;-0.428;2022-10-14T15:40:46;18.10;99.90
20744;DHT22;56303;52.160;-0.428;2022-10-14T15:43:15;18.00;99.90
20744;DHT22;56303;52.160;-0.428;2022-10-14T15:45:45;17.70;99.90
20744;DHT22;56303;52.160;-0.428;2022-10-14T15:48:18;17.60;99.90
20744;DHT22;56303;52.160;-0.428;2022-10-14T15:50:47;17.70;99.90
20744;DHT22;56303;52.160;-0.428;2022-10-14T15:53:20;17.60;99.90
20744;DHT22;56303;52.160;-0.428;2022-10-14T15:55:52;17.50;99.90
20744;DHT22;56303;52.160;-0.428;2022-10-14T15:58:18;17.40;99.90
20744;DHT22;56303;52.160;-0.428;2022-10-14T16:00:45;17.20;99.90
20744;DHT22;56303;52.160;-0.428;2022-10-14T16:03:13;17.00;99.90
20744;DHT22;56303;52.160;-0.428;2022-10-14T16:05:43;16.80;99.90
20744;DHT22;56303;52.160;-0.428;2022-10-14T16:08:13;16.50;99.90
20744;DHT22;56303;52.160;-0.428;2022-10-14T16:10:44;16.60;99.90
20744;DHT22;56303;52.160;-0.428;2022-10-14T16:13:11;16.60;99.90
20744;DHT22;56303;52.160;-0.428;2022-10-14T16:18:08;16.80;99.90
20744;DHT22;56303;52.160;-0.428;2022-10-14T16:20:35;16.70;99.90
20744;DHT22;56303;52.160;-0.428;2022-10-14T16:23:01;16.70;99.90
20744;DHT22;56303;52.160;-0.428;2022-10-14T16:25:37;16.50;99.90
20744;DHT22;56303;52.160;-0.428;2022-10-14T16:28:06;16.40;99.90
20744;DHT22;56303;52.160;-0.428;2022-10-14T16:30:38;16.40;99.90
20744;DHT22;56303;52.160;-0.428;2022-10-14T16:33:06;16.60;99.90
20744;DHT22;56303;52.160;-0.428;2022-10-14T16:35:33;16.50;99.90
20744;DHT22;56303;52.160;-0.428;2022-10-14T16:37:59;16.70;99.90
20744;DHT22;56303;52.160;-0.428;2022-10-14T16:40:26;16.70;99.90
20744;DHT22;56303;52.160;-0.428;2022-10-14T16:42:53;16.50;99.90
20744;DHT22;56303;52.160;-0.428;2022-10-14T16:45:20;16.60;99.90
20744;DHT22;56303;52.160;-0.428;2022-10-14T16:47:47;16.40;99.90
20744;DHT22;56303;52.160;-0.428;2022-10-14T16:50:13;16.50;99.90
20744;DHT22;56303;52.160;-0.428;2022-10-14T16:52:40;15.80;99.90
20744;DHT22;56303;52.160;-0.428;2022-10-14T16:55:31;16.70;99.90
20744;DHT22;56303;52.160;-0.428;2022-10-14T16:58:00;16.50;99.90
20744;DHT22;56303;52.160;-0.428;2022-10-14T17:00:27;16.60;99.90
20744;DHT22;56303;52.160;-0.428;2022-10-14T17:02:54;16.50;99.90
20744;DHT22;56303;52.160;-0.428;2022-10-14T17:05:21;16.30;99.90
20744;DHT22;56303;52.160;-0.428;2022-10-14T17:07:48;16.10;99.90
20744;DHT22;56303;52.160;-0.428;2022-10-14T17:10:15;15.80;99.90
20744;DHT22;56303;52.160;-0.428;2022-10-14T17:12:42;16.00;99.90
20744;DHT22;56303;52.160;-0.428;2022-10-14T17:15:09;16.00;99.90
20744;DHT22;56303;52.160;-0.428;2022-10-14T17:17:36;16.00;99.90
20744;DHT22;56303;52.160;-0.428;2022-10-14T17:20:06;16.10;99.90
20744;DHT22;56303;52.160;-0.428;2022-10-14T17:22:34;15.80;99.90
20744;DHT22;56303;52.160;-0.428;2022-10-14T17:25:02;16.00;99.90
20744;DHT22;56303;52.160;-0.428;2022-10-14T17:27:29;17.10;99.90
20744;DHT22;56303;52.160;-0.428;2022-10-14T17:29:55;15.90;99.90
20744;DHT22;56303;52.160;-0.428;2022-10-14T17:32:22;15.70;99.90
20744;DHT22;56303;52.160;-0.428;2022-10-14T17:34:49;15.60;99.90
20744;DHT22;56303;52.160;-0.428;2022-10-14T17:37:19;15.60;99.90
20744;DHT22;56303;52.160;-0.428;2022-10-14T17:39:48;15.50;99.90
20744;DHT22;56303;52.160;-0.428;2022-10-14T17:42:15;15.30;99.90
20744;DHT22;56303;52.160;-0.428;2022-10-14T17:44:42;15.30;99.90
20744;DHT22;56303;52.160;-0.428;2022-10-14T17:47:10;15.30;99.90
20744;DHT22;56303;52.160;-0.428;2022-10-14T17:49:36;15.30;99.90
20744;DHT22;56303;52.160;-0.428;2022-10-14T17:52:03;14.60;99.90
20744;DHT22;56303;52.160;-0.428;2022-10-14T17:54:31;15.20;99.90
20744;DHT22;56303;52.160;-0.428;2022-10-14T17:56:58;15.30;99.90